Time;durP1;ratioP1;P1;durP2;ratioP2;P2;SDS_P1;SDS_P2;PMS_P1;PMS_P2;Temp;Humidity;BMP_temperature;BMP_pressure;BME280_temperature;BME280_humidity;BME280_pressure;Samples;Min_cycle;Max_cycle;Signal;HPM_P1;HPM_P2
2023/02/04 00:02:27;;;;;;;;;;;;;;;;;;5035777;28;2010;-49
2023/02/04 00:04:54;;;;;;;;;;;;;;;;;;5043932;28;1574;-45
2023/02/04 00:07:21;;;;;;;;;;;;;;;;;;5051468;28;1549;-48
2023/02/04 00:09:48;;;;;;;;;;;;;;;;;;5051791;28;2013;-49
2023/02/04 00:12:18;;;;;;;;;;;;;;;;;;5050888;28;1612;-47
2023/02/04 00:14:45;;;;;;;;;;;;;;;;;;5050967;28;2096;-50
2023/02/04 00:17:13;;;;;;;;;;;;;;;;;;5051337;28;1840;-52
2023/02/04 00:19:40;;;;;;;;;;;;;;;;;;5051263;28;2065;-53
2023/02/04 00:22:07;;;;;;;;;;;;;;;;;;5051881;28;1950;-50
2023/02/04 00:24:35;;;;;;;;;;;;;;;;;;5051495;28;1323;-46
2023/02/04 00:27:03;;;;;;;;;;;;;;;;;;5045836;28;2075;-48
2023/02/04 00:29:30;;;;;;;;;;;;;;;;;;5022879;28;2200;-51
2023/02/04 00:31:57;;;;;;;;;;;;;;;;;;5019811;28;1283;-49
2023/02/04 00:34:26;;;;;;;;;;;;;;;;;;5016796;28;1992;-47
2023/02/04 00:36:53;;;;;;;;;;;;;;;;;;5050995;28;1691;-52
2023/02/04 00:39:20;;;;;;;;;;;;;;;;;;5051020;28;2096;-52
2023/02/04 00:41:47;;;;;;;;;;;;;;;;;;5033086;28;2195;-50
2023/02/04 00:44:14;;;;;;;;;;;;;;;;;;5050915;28;2014;-49
2023/02/04 00:46:42;;;;;;;;;;;;;;;;;;5050135;28;1966;-45
2023/02/04 00:49:09;;;;;;;;;;;;;;;;;;5042869;28;2138;-48
2023/02/04 00:51:37;;;;;;;;;;;;;;;;;;5032494;28;1731;-50
2023/02/04 00:54:05;;;;;;;;;;;;;;;;;;5049994;28;1971;-44
2023/02/04 00:56:32;;;;;;;;;;;;;;;;;;5050120;28;1727;-46
2023/02/04 00:59:00;;;;;;;;;;;;;;;;;;5048819;28;2012;-47
2023/02/04 01:01:27;;;;;;;;;;;;;;;;;;5050040;28;1396;-45
2023/02/04 01:03:54;;;;;;;;;;;;;;;;;;5049781;28;2150;-48
2023/02/04 01:06:22;;;;;;;;;;;;;;;;;;5031364;28;2044;-46
2023/02/04 01:08:49;;;;;;;;;;;;;;;;;;5016442;28;2000;-48
2023/02/04 01:11:17;;;;;;;;;;;;;;;;;;5048713;28;1865;-47
2023/02/04 01:13:44;;;;;;;;;;;;;;;;;;5049898;28;1616;-45
2023/02/04 01:16:11;;;;;;;;;;;;;;;;;;5049832;28;2013;-44
2023/02/04 01:18:39;;;;;;;;;;;;;;;;;;5049580;28;2021;-46
2023/02/04 01:21:09;;;;;;;;;;;;;;;;;;5049582;28;2019;-46
2023/02/04 01:23:37;;;;;;;;;;;;;;;;;;5031456;28;2561;-54
2023/02/04 01:26:05;;;;;;;;;;;;;;;;;;5045060;28;1998;-44
2023/02/04 01:28:32;;;;;;;;;;;;;;;;;;5041377;28;2076;-48
2023/02/04 01:31:02;;;;;;;;;;;;;;;;;;5028144;28;1550;-44
2023/02/04 01:33:30;;;;;;;;;;;;;;;;;;5040542;28;1612;-43
2023/02/04 01:35:57;;;;;;;;;;;;;;;;;;5046417;28;1963;-46
2023/02/04 01:38:24;;;;;;;;;;;;;;;;;;5024157;28;1943;-46
2023/02/04 01:40:51;;;;;;;;;;;;;;;;;;5045024;28;2200;-49
2023/02/04 01:43:21;;;;;;;;;;;;;;;;;;5028288;28;2260;-47
2023/02/04 01:45:49;;;;;;;;;;;;;;;;;;5040941;28;1717;-49
2023/02/04 01:48:19;;;;;;;;;;;;;;;;;;5028936;28;2300;-46
2023/02/04 01:50:47;;;;;;;;;;;;;;;;;;5048515;28;1750;-45
2023/02/04 01:53:17;;;;;;;;;;;;;;;;;;5036031;28;1768;-44
2023/02/04 01:55:44;;;;;;;;;;;;;;;;;;5044339;28;1981;-47
2023/02/04 01:58:11;;;;;;;;;;;;;;;;;;5053101;28;1625;-48
2023/02/04 02:00:39;;;;;;;;;;;;;;;;;;5049348;28;2056;-47
2023/02/04 02:03:10;;;;;;;;;;;;;;;;;;5038730;28;1943;-49
2023/02/04 02:05:40;;;;;;;;;;;;;;;;;;5029076;28;2351;-46
2023/02/04 02:08:07;;;;;;;;;;;;;;;;;;5026337;28;1802;-50
2023/02/04 02:10:38;;;;;;;;;;;;;;;;;;5050223;28;1875;-47
2023/02/04 02:13:07;;;;;;;;;;;;;;;;;;5029592;28;2511;-47
2023/02/04 02:15:37;;;;;;;;;;;;;;;;;;5050332;28;2024;-46
2023/02/04 02:18:05;;;;;;;;;;;;;;;;;;5038671;28;2264;-45
2023/02/04 02:20:32;;;;;;;;;;;;;;;;;;5049739;28;1642;-42
2023/02/04 02:23:14;;;;;;;;;;;;;;;;;;5051858;28;2039;-44
2023/02/04 02:25:41;;;;;;;;;;;;;;;;;;5048069;28;1699;-47
2023/02/04 02:28:11;;;;;;;;;;;;;;;;;;5047990;28;2119;-46
2023/02/04 02:30:39;;;;;;;;;;;;;;;;;;5053579;28;2224;-48
2023/02/04 02:33:07;;;;;;;;;;;;;;;;;;5053343;28;1702;-48
2023/02/04 02:35:34;;;;;;;;;;;;;;;;;;5053515;28;1915;-47
2023/02/04 02:38:01;;;;;;;;;;;;;;;;;;5053574;28;1483;-46
2023/02/04 02:40:29;;;;;;;;;;;;;;;;;;5026747;28;2171;-51
2023/02/04 02:42:56;;;;;;;;;;;;;;;;;;5053371;28;2017;-53
2023/02/04 02:45:26;;;;;;;;;;;;;;;;;;5042075;28;2011;-49
2023/02/04 02:47:55;;;;;;;;;;;;;;;;;;5048434;28;1672;-50
2023/02/04 02:50:23;;;;;;;;;;;;;;;;;;5033855;28;1797;-45
2023/02/04 02:52:51;;;;;;;;;;;;;;;;;;5018375;28;1781;-46
2023/02/04 02:55:21;;;;;;;;;;;;;;;;;;5053498;28;2136;-46
2023/02/04 02:57:51;;;;;;;;;;;;;;;;;;5035287;28;2032;-46
2023/02/04 03:00:20;;;;;;;;;;;;;;;;;;5052974;28;1885;-44
2023/02/04 03:02:52;;;;;;;;;;;;;;;;;;5053052;28;2068;-47
2023/02/04 03:05:19;;;;;;;;;;;;;;;;;;5053040;28;2026;-44
2023/02/04 03:07:47;;;;;;;;;;;;;;;;;;5037393;28;2182;-48
2023/02/04 03:10:15;;;;;;;;;;;;;;;;;;5052387;28;1852;-45
2023/02/04 03:12:43;;;;;;;;;;;;;;;;;;5051495;28;2061;-47
2023/02/04 03:15:11;;;;;;;;;;;;;;;;;;5051025;28;2145;-48
2023/02/04 03:17:38;;;;;;;;;;;;;;;;;;5052538;28;1935;-47
2023/02/04 03:20:06;;;;;;;;;;;;;;;;;;5052164;28;2152;-51
2023/02/04 03:22:34;;;;;;;;;;;;;;;;;;5034717;28;1910;-45
2023/02/04 03:25:02;;;;;;;;;;;;;;;;;;5026334;28;1976;-46
2023/02/04 03:27:29;;;;;;;;;;;;;;;;;;5052389;28;1585;-45
2023/02/04 03:29:56;;;;;;;;;;;;;;;;;;5052388;28;1836;-44
2023/02/04 03:32:23;;;;;;;;;;;;;;;;;;5052525;28;1796;-47
2023/02/04 03:34:51;;;;;;;;;;;;;;;;;;5051677;28;1977;-46
2023/02/04 03:37:18;;;;;;;;;;;;;;;;;;5052499;28;1992;-47
2023/02/04 03:39:45;;;;;;;;;;;;;;;;;;5037851;28;1825;-50
2023/02/04 03:42:13;;;;;;;;;;;;;;;;;;5033705;28;2197;-47
2023/02/04 03:44:41;;;;;;;;;;;;;;;;;;5033777;28;2143;-45
2023/02/04 03:47:08;;;;;;;;;;;;;;;;;;5040510;28;1481;-48
2023/02/04 03:49:36;;;;;;;;;;;;;;;;;;5043104;28;1999;-49
2023/02/04 03:52:03;;;;;;;;;;;;;;;;;;5051640;28;1869;-45
2023/02/04 03:54:30;;;;;;;;;;;;;;;;;;5051723;28;1904;-49
2023/02/04 03:56:58;;;;;;;;;;;;;;;;;;5052122;28;2205;-50
2023/02/04 03:59:26;;;;;;;;;;;;;;;;;;5051662;28;1571;-46
2023/02/04 04:01:56;;;;;;;;;;;;;;;;;;5051961;28;2000;-45
2023/02/04 04:04:23;;;;;;;;;;;;;;;;;;5048179;28;1947;-44
2023/02/04 04:06:53;;;;;;;;;;;;;;;;;;5051890;28;2123;-45
2023/02/04 04:09:20;;;;;;;;;;;;;;;;;;5051907;28;1998;-50
2023/02/04 04:11:48;;;;;;;;;;;;;;;;;;5052026;28;1842;-48
2023/02/04 04:14:15;;;;;;;;;;;;;;;;;;5051531;28;1850;-46
2023/02/04 04:16:42;;;;;;;;;;;;;;;;;;5034223;28;1957;-51
2023/02/04 04:19:09;;;;;;;;;;;;;;;;;;5051558;28;1916;-49
2023/02/04 04:21:42;;;;;;;;;;;;;;;;;;5051779;28;1923;-49
2023/02/04 04:24:16;;;;;;;;;;;;;;;;;;5051616;28;1736;-52
2023/02/04 04:26:43;;;;;;;;;;;;;;;;;;5050723;28;1999;-44
2023/02/04 04:29:11;;;;;;;;;;;;;;;;;;5051366;28;1448;-46
2023/02/04 04:31:38;;;;;;;;;;;;;;;;;;5051254;28;2086;-47
2023/02/04 04:34:05;;;;;;;;;;;;;;;;;;5051126;28;1968;-49
2023/02/04 04:36:33;;;;;;;;;;;;;;;;;;5051274;28;1971;-48
2023/02/04 04:39:00;;;;;;;;;;;;;;;;;;5051479;28;2166;-49
2023/02/04 04:41:27;;;;;;;;;;;;;;;;;;5051314;28;1901;-46
2023/02/04 04:43:54;;;;;;;;;;;;;;;;;;5051138;28;2386;-44
2023/02/04 04:46:22;;;;;;;;;;;;;;;;;;5051142;28;1907;-43
2023/02/04 04:48:49;;;;;;;;;;;;;;;;;;5051355;28;1878;-44
2023/02/04 04:51:16;;;;;;;;;;;;;;;;;;5051163;28;2627;-47
2023/02/04 04:53:43;;;;;;;;;;;;;;;;;;5051235;28;1637;-48
2023/02/04 04:56:10;;;;;;;;;;;;;;;;;;5050960;28;1972;-45
2023/02/04 04:58:37;;;;;;;;;;;;;;;;;;5050414;28;1490;-51
2023/02/04 05:01:05;;;;;;;;;;;;;;;;;;5050645;28;1647;-47
2023/02/04 05:03:34;;;;;;;;;;;;;;;;;;5050714;28;1985;-46
2023/02/04 05:06:01;;;;;;;;;;;;;;;;;;5051226;28;2113;-50
2023/02/04 05:08:29;;;;;;;;;;;;;;;;;;5050908;28;2273;-48
2023/02/04 05:10:57;;;;;;;;;;;;;;;;;;5050908;28;1844;-43
2023/02/04 05:13:24;;;;;;;;;;;;;;;;;;5051070;28;1625;-46
2023/02/04 05:15:51;;;;;;;;;;;;;;;;;;5051419;28;2320;-45
2023/02/04 05:18:18;;;;;;;;;;;;;;;;;;5033023;28;2051;-47
2023/02/04 05:20:45;;;;;;;;;;;;;;;;;;5050791;28;2183;-46
2023/02/04 05:23:12;;;;;;;;;;;;;;;;;;5050675;28;1843;-47
2023/02/04 05:25:40;;;;;;;;;;;;;;;;;;5051041;28;1911;-47
2023/02/04 05:28:07;;;;;;;;;;;;;;;;;;5032928;28;2043;-44
2023/02/04 05:30:34;;;;;;;;;;;;;;;;;;5050656;28;1716;-48
2023/02/04 05:33:01;;;;;;;;;;;;;;;;;;5050697;28;1775;-48
2023/02/04 05:35:28;;;;;;;;;;;;;;;;;;5041397;28;1920;-45
2023/02/04 05:37:55;;;;;;;;;;;;;;;;;;5034430;28;1487;-48
2023/02/04 05:40:22;;;;;;;;;;;;;;;;;;5038709;28;1971;-45
2023/02/04 05:42:50;;;;;;;;;;;;;;;;;;5050318;28;1915;-48
2023/02/04 05:45:17;;;;;;;;;;;;;;;;;;5050032;28;2055;-44
2023/02/04 05:47:45;;;;;;;;;;;;;;;;;;5031386;28;2319;-44
2023/02/04 05:50:12;;;;;;;;;;;;;;;;;;5050117;28;1837;-48
2023/02/04 05:52:39;;;;;;;;;;;;;;;;;;5050285;28;1881;-47
2023/02/04 05:55:07;;;;;;;;;;;;;;;;;;5049360;28;1906;-46
2023/02/04 05:57:34;;;;;;;;;;;;;;;;;;5038110;28;1861;-44
2023/02/04 06:00:02;;;;;;;;;;;;;;;;;;5042346;28;1914;-46
2023/02/04 06:02:37;;;;;;;;;;;;;;;;;;5052484;28;1914;-48
2023/02/04 06:05:04;;;;;;;;;;;;;;;;;;5053927;28;2227;-42
2023/02/04 06:07:32;;;;;;;;;;;;;;;;;;5054072;28;1820;-47
2023/02/04 06:09:59;;;;;;;;;;;;;;;;;;5054029;28;1684;-43
2023/02/04 06:12:26;;;;;;;;;;;;;;;;;;5043442;28;2170;-46
2023/02/04 06:14:54;;;;;;;;;;;;;;;;;;5046506;28;2325;-46
2023/02/04 06:17:22;;;;;;;;;;;;;;;;;;5045301;28;1959;-45
2023/02/04 06:19:51;;;;;;;;;;;;;;;;;;5053805;28;1780;-45
2023/02/04 06:22:18;;;;;;;;;;;;;;;;;;5053504;28;1839;-49
2023/02/04 06:24:45;;;;;;;;;;;;;;;;;;5053608;28;2199;-47
2023/02/04 06:27:13;;;;;;;;;;;;;;;;;;5053786;28;2155;-45
2023/02/04 06:29:40;;;;;;;;;;;;;;;;;;5053591;28;1720;-49
2023/02/04 06:32:07;;;;;;;;;;;;;;;;;;5053356;28;1923;-44
2023/02/04 06:34:34;;;;;;;;;;;;;;;;;;5053182;28;1968;-47
2023/02/04 06:37:01;;;;;;;;;;;;;;;;;;5049973;28;2107;-44
2023/02/04 06:39:29;;;;;;;;;;;;;;;;;;5038790;28;1757;-48
2023/02/04 06:41:56;;;;;;;;;;;;;;;;;;5047506;28;1694;-44
2023/02/04 06:44:23;;;;;;;;;;;;;;;;;;5052533;28;1759;-44
2023/02/04 06:46:50;;;;;;;;;;;;;;;;;;5053753;28;1964;-51
2023/02/04 06:49:18;;;;;;;;;;;;;;;;;;5053163;28;1980;-46
2023/02/04 06:51:45;;;;;;;;;;;;;;;;;;5053102;28;2211;-47
2023/02/04 06:54:12;;;;;;;;;;;;;;;;;;5053499;28;1848;-45
2023/02/04 06:56:39;;;;;;;;;;;;;;;;;;5053133;28;1892;-50
2023/02/04 06:59:06;;;;;;;;;;;;;;;;;;5052884;28;1688;-50
2023/02/04 07:01:33;;;;;;;;;;;;;;;;;;5052876;28;2014;-47
2023/02/04 07:04:01;;;;;;;;;;;;;;;;;;5053008;28;2033;-48
2023/02/04 07:06:28;;;;;;;;;;;;;;;;;;5053246;28;1908;-47
2023/02/04 07:08:55;;;;;;;;;;;;;;;;;;5052885;28;2096;-43
2023/02/04 07:11:22;;;;;;;;;;;;;;;;;;5051676;28;1710;-50
2023/02/04 07:13:49;;;;;;;;;;;;;;;;;;5053054;28;2151;-43
2023/02/04 07:16:16;;;;;;;;;;;;;;;;;;5052973;28;2097;-45
2023/02/04 07:18:44;;;;;;;;;;;;;;;;;;5052735;28;1909;-44
2023/02/04 07:21:11;;;;;;;;;;;;;;;;;;5052709;28;2045;-44
2023/02/04 07:23:38;;;;;;;;;;;;;;;;;;5047621;28;1633;-45
2023/02/04 07:26:05;;;;;;;;;;;;;;;;;;5043883;28;1983;-45
2023/02/04 07:28:32;;;;;;;;;;;;;;;;;;5049255;28;1885;-49
2023/02/04 07:30:59;;;;;;;;;;;;;;;;;;5040969;28;1958;-47
2023/02/04 07:33:27;;;;;;;;;;;;;;;;;;5042279;28;1240;-47
2023/02/04 07:35:54;;;;;;;;;;;;;;;;;;5043002;28;2088;-47
2023/02/04 07:38:21;;;;;;;;;;;;;;;;;;5052603;28;1955;-44
2023/02/04 07:40:48;;;;;;;;;;;;;;;;;;5052709;28;2271;-44
2023/02/04 07:43:15;;;;;;;;;;;;;;;;;;5052510;28;2039;-45
2023/02/04 07:45:42;;;;;;;;;;;;;;;;;;5052040;28;1266;-47
2023/02/04 07:48:09;;;;;;;;;;;;;;;;;;5052151;28;1756;-43
2023/02/04 07:50:36;;;;;;;;;;;;;;;;;;5051905;28;1548;-43
2023/02/04 07:53:04;;;;;;;;;;;;;;;;;;5052674;28;1725;-44
2023/02/04 07:55:31;;;;;;;;;;;;;;;;;;5052320;28;2141;-46
2023/02/04 07:57:58;;;;;;;;;;;;;;;;;;5052057;28;2041;-47
2023/02/04 08:00:25;;;;;;;;;;;;;;;;;;5051820;28;2097;-42
2023/02/04 08:02:52;;;;;;;;;;;;;;;;;;5049447;28;2107;-45
2023/02/04 08:05:20;;;;;;;;;;;;;;;;;;5045984;28;2341;-43
2023/02/04 08:07:50;;;;;;;;;;;;;;;;;;5051794;28;1904;-46
2023/02/04 08:10:17;;;;;;;;;;;;;;;;;;5051645;28;1870;-46
2023/02/04 08:12:44;;;;;;;;;;;;;;;;;;5051278;28;2009;-46
2023/02/04 08:15:11;;;;;;;;;;;;;;;;;;5046902;28;1407;-48
2023/02/04 08:17:38;;;;;;;;;;;;;;;;;;5044265;28;1904;-44
2023/02/04 08:20:06;;;;;;;;;;;;;;;;;;5051176;28;1728;-47
2023/02/04 08:22:35;;;;;;;;;;;;;;;;;;5044747;28;1822;-47
2023/02/04 08:25:04;;;;;;;;;;;;;;;;;;5049299;28;2038;-47
2023/02/04 08:27:31;;;;;;;;;;;;;;;;;;5051948;28;1546;-45
2023/02/04 08:29:58;;;;;;;;;;;;;;;;;;5051392;28;1402;-45
2023/02/04 08:32:29;;;;;;;;;;;;;;;;;;5051157;28;2011;-43
2023/02/04 08:34:57;;;;;;;;;;;;;;;;;;5049586;28;2004;-48
2023/02/04 08:37:30;;;;;;;;;;;;;;;;;;5044665;28;1908;-44
2023/02/04 08:39:58;;;;;;;;;;;;;;;;;;5031867;28;1279;-47
2023/02/04 08:42:25;;;;;;;;;;;;;;;;;;5031546;28;1696;-44
2023/02/04 08:44:52;;;;;;;;;;;;;;;;;;5041306;28;1934;-48
2023/02/04 08:47:19;;;;;;;;;;;;;;;;;;5049343;28;1691;-45
2023/02/04 08:49:47;;;;;;;;;;;;;;;;;;5051154;28;2238;-46
2023/02/04 08:52:14;;;;;;;;;;;;;;;;;;5040450;28;1430;-45
2023/02/04 08:54:42;;;;;;;;;;;;;;;;;;5047633;28;2228;-50
2023/02/04 08:57:09;;;;;;;;;;;;;;;;;;5048905;28;2259;-47
2023/02/04 08:59:36;;;;;;;;;;;;;;;;;;5036265;28;1494;-45
2023/02/04 09:02:03;;;;;;;;;;;;;;;;;;5050791;28;2048;-44
2023/02/04 09:04:30;;;;;;;;;;;;;;;;;;5032804;28;10636;-50
2023/02/04 09:06:57;;;;;;;;;;;;;;;;;;5024274;28;5240;-44
2023/02/04 09:09:24;;;;;;;;;;;;;;;;;;5030791;28;1833;-43
2023/02/04 09:11:52;;;;;;;;;;;;;;;;;;5031001;28;1872;-47
2023/02/04 09:14:19;;;;;;;;;;;;;;;;;;5029501;28;2372;-46
2023/02/04 09:16:47;;;;;;;;;;;;;;;;;;5030191;28;1908;-45
2023/02/04 09:19:15;;;;;;;;;;;;;;;;;;5030934;28;2120;-47
2023/02/04 09:21:42;;;;;;;;;;;;;;;;;;5030805;28;1943;-47
2023/02/04 09:24:09;;;;;;;;;;;;;;;;;;5023110;28;1843;-48
2023/02/04 09:26:38;;;;;;;;;;;;;;;;;;5029834;28;2143;-45
2023/02/04 09:29:05;;;;;;;;;;;;;;;;;;5030480;28;1860;-47
2023/02/04 09:31:33;;;;;;;;;;;;;;;;;;5011915;28;1934;-45
2023/02/04 09:34:00;;;;;;;;;;;;;;;;;;5034359;28;1765;-44
2023/02/04 09:36:29;;;;;;;;;;;;;;;;;;5033649;28;1914;-44
2023/02/04 09:38:56;;;;;;;;;;;;;;;;;;5033389;28;1858;-42
2023/02/04 09:41:23;;;;;;;;;;;;;;;;;;5033961;28;1930;-44
2023/02/04 09:43:51;;;;;;;;;;;;;;;;;;5033365;28;2041;-43
2023/02/04 09:46:22;;;;;;;;;;;;;;;;;;5034240;28;2144;-44
2023/02/04 09:48:50;;;;;;;;;;;;;;;;;;5033630;28;1605;-44
2023/02/04 09:51:22;;;;;;;;;;;;;;;;;;5031604;28;1949;-49
2023/02/04 09:53:49;;;;;;;;;;;;;;;;;;5034304;28;1452;-49
2023/02/04 09:56:18;;;;;;;;;;;;;;;;;;5029377;28;2109;-49
2023/02/04 09:58:46;;;;;;;;;;;;;;;;;;5019582;28;2048;-47
2023/02/04 10:01:13;;;;;;;;;;;;;;;;;;5029741;28;1570;-45
2023/02/04 10:03:45;;;;;;;;;;;;;;;;;;5034551;28;2395;-44
2023/02/04 10:06:15;;;;;;;;;;;;;;;;;;5034219;28;1553;-48
2023/02/04 10:08:43;;;;;;;;;;;;;;;;;;5034571;28;1868;-49
2023/02/04 10:11:12;;;;;;;;;;;;;;;;;;5034496;28;1590;-45
2023/02/04 10:13:43;;;;;;;;;;;;;;;;;;5032635;28;1514;-50
2023/02/04 10:16:15;;;;;;;;;;;;;;;;;;5034231;28;1968;-45
2023/02/04 10:18:43;;;;;;;;;;;;;;;;;;5034290;28;2047;-43
2023/02/04 10:21:16;;;;;;;;;;;;;;;;;;5034405;28;1854;-51
2023/02/04 10:23:46;;;;;;;;;;;;;;;;;;5034071;28;2015;-46
2023/02/04 10:26:13;;;;;;;;;;;;;;;;;;5034141;28;1586;-43
2023/02/04 10:28:41;;;;;;;;;;;;;;;;;;5016594;28;1893;-45
2023/02/04 10:31:26;;;;;;;;;;;;;;;;;;5033814;28;1795;-47
2023/02/04 10:34:04;;;;;;;;;;;;;;;;;;5033775;28;2126;-43
2023/02/04 10:36:31;;;;;;;;;;;;;;;;;;5033311;28;2025;-47
2023/02/04 10:39:00;;;;;;;;;;;;;;;;;;5033865;28;1472;-46
2023/02/04 10:41:27;;;;;;;;;;;;;;;;;;5033734;28;1916;-47
2023/02/04 10:44:04;;;;;;;;;;;;;;;;;;5013225;28;2005;-44
2023/02/04 10:46:32;;;;;;;;;;;;;;;;;;5013376;28;1666;-43
2023/02/04 10:48:59;;;;;;;;;;;;;;;;;;5013626;28;1652;-44
2023/02/04 10:51:27;;;;;;;;;;;;;;;;;;5013405;28;1359;-49
2023/02/04 10:56:42;;;;;;;;;;;;;;;;;;5013449;28;2129;-43
2023/02/04 10:59:16;;;;;;;;;;;;;;;;;;5013592;28;2085;-49
2023/02/04 11:01:43;;;;;;;;;;;;;;;;;;5026456;28;1515;-44
2023/02/04 11:04:10;;;;;;;;;;;;;;;;;;5029695;28;2234;-46
2023/02/04 11:06:38;;;;;;;;;;;;;;;;;;5033272;28;2032;-43
2023/02/04 11:09:05;;;;;;;;;;;;;;;;;;5022539;28;1565;-45
2023/02/04 11:11:32;;;;;;;;;;;;;;;;;;5030663;28;1727;-46
2023/02/04 11:14:01;;;;;;;;;;;;;;;;;;5030532;28;2238;-46
2023/02/04 11:16:45;;;;;;;;;;;;;;;;;;5032852;28;2119;-45
2023/02/04 11:19:16;;;;;;;;;;;;;;;;;;5031972;28;2267;-48
2023/02/04 11:21:44;;;;;;;;;;;;;;;;;;5032763;28;2041;-49
2023/02/04 11:24:14;;;;;;;;;;;;;;;;;;5033008;28;1671;-45
2023/02/04 11:26:43;;;;;;;;;;;;;;;;;;5031847;28;1555;-47
2023/02/04 11:29:36;;;;;;;;;;;;;;;;;;5032903;28;2058;-51
2023/02/04 11:32:06;;;;;;;;;;;;;;;;;;5032914;28;1953;-52
2023/02/04 11:34:47;;;;;;;;;;;;;;;;;;5032937;28;1826;-50
2023/02/04 11:37:15;;;;;;;;;;;;;;;;;;5032213;28;1987;-45
2023/02/04 11:39:44;;;;;;;;;;;;;;;;;;5029070;28;1837;-47
2023/02/04 11:42:16;;;;;;;;;;;;;;;;;;5029408;28;1777;-46
2023/02/04 11:45:12;;;;;;;;;;;;;;;;;;5032122;28;1970;-47
2023/02/04 11:47:40;;;;;;;;;;;;;;;;;;5019844;28;1836;-46
2023/02/04 11:50:25;;;;;;;;;;;;;;;;;;5031872;28;1971;-46
2023/02/04 11:52:56;;;;;;;;;;;;;;;;;;5032024;28;2017;-46
2023/02/04 11:55:24;;;;;;;;;;;;;;;;;;5028260;28;1993;-47
2023/02/04 11:57:52;;;;;;;;;;;;;;;;;;5030444;28;1963;-44
2023/02/04 12:00:22;;;;;;;;;;;;;;;;;;5031133;28;1871;-46
2023/02/04 12:02:53;;;;;;;;;;;;;;;;;;5030009;28;1722;-49
2023/02/04 12:05:20;;;;;;;;;;;;;;;;;;5032165;28;2231;-49
2023/02/04 12:07:48;;;;;;;;;;;;;;;;;;5031043;28;2190;-44
2023/02/04 12:10:15;;;;;;;;;;;;;;;;;;5031829;28;1798;-46
2023/02/04 12:12:44;;;;;;;;;;;;;;;;;;5031487;28;2270;-44
2023/02/04 12:15:15;;;;;;;;;;;;;;;;;;5031747;28;2050;-45
2023/02/04 12:17:44;;;;;;;;;;;;;;;;;;5031659;28;2057;-45
2023/02/04 12:20:12;;;;;;;;;;;;;;;;;;5031829;28;1974;-47
2023/02/04 12:22:39;;;;;;;;;;;;;;;;;;5031598;28;1774;-43
2023/02/04 12:25:07;;;;;;;;;;;;;;;;;;5030681;28;1726;-45
2023/02/04 12:27:34;;;;;;;;;;;;;;;;;;5031677;28;1689;-47
2023/02/04 12:30:01;;;;;;;;;;;;;;;;;;5030230;28;2014;-43
2023/02/04 12:32:28;;;;;;;;;;;;;;;;;;5026932;28;2329;-47
2023/02/04 12:34:57;;;;;;;;;;;;;;;;;;5024304;28;2002;-43
2023/02/04 12:37:25;;;;;;;;;;;;;;;;;;5021906;28;1971;-47
2023/02/04 12:39:52;;;;;;;;;;;;;;;;;;5030732;28;2104;-45
2023/02/04 12:42:19;;;;;;;;;;;;;;;;;;5031236;28;2158;-47
2023/02/04 12:44:46;;;;;;;;;;;;;;;;;;5031045;28;2020;-46
2023/02/04 12:47:13;;;;;;;;;;;;;;;;;;5030972;28;1863;-44
2023/02/04 12:49:40;;;;;;;;;;;;;;;;;;5014773;28;2010;-50
2023/02/04 12:52:08;;;;;;;;;;;;;;;;;;5020525;28;1543;-47
2023/02/04 12:54:35;;;;;;;;;;;;;;;;;;5031022;28;2158;-45
2023/02/04 12:57:02;;;;;;;;;;;;;;;;;;5026901;28;1976;-49
2023/02/04 12:59:30;;;;;;;;;;;;;;;;;;5030896;28;1739;-45
2023/02/04 13:01:57;;;;;;;;;;;;;;;;;;5030946;28;1940;-50
2023/02/04 13:04:24;;;;;;;;;;;;;;;;;;5028976;28;1691;-49
2023/02/04 13:06:52;;;;;;;;;;;;;;;;;;5030535;28;1758;-51
2023/02/04 13:09:19;;;;;;;;;;;;;;;;;;5030025;28;2003;-50
2023/02/04 13:11:46;;;;;;;;;;;;;;;;;;5030508;28;1711;-47
2023/02/04 13:14:13;;;;;;;;;;;;;;;;;;5028824;28;2018;-47
2023/02/04 13:16:40;;;;;;;;;;;;;;;;;;5030765;28;1523;-51
2023/02/04 13:19:07;;;;;;;;;;;;;;;;;;5020693;28;1971;-48
2023/02/04 13:21:35;;;;;;;;;;;;;;;;;;5030655;28;1854;-49
2023/02/04 13:24:02;;;;;;;;;;;;;;;;;;5030795;28;1413;-49
2023/02/04 13:26:29;;;;;;;;;;;;;;;;;;5030485;28;1971;-50
2023/02/04 13:28:56;;;;;;;;;;;;;;;;;;5030836;28;2251;-52
2023/02/04 13:31:23;;;;;;;;;;;;;;;;;;5030818;28;2234;-44
2023/02/04 13:33:51;;;;;;;;;;;;;;;;;;5030779;28;1720;-47
2023/02/04 13:36:18;;;;;;;;;;;;;;;;;;5018205;28;1728;-49
2023/02/04 13:38:45;;;;;;;;;;;;;;;;;;5030462;28;2229;-48
2023/02/04 13:41:13;;;;;;;;;;;;;;;;;;5030151;28;1827;-43
2023/02/04 13:43:40;;;;;;;;;;;;;;;;;;5030388;28;1816;-44
2023/02/04 13:46:07;;;;;;;;;;;;;;;;;;5030084;28;2327;-47
2023/02/04 13:48:35;;;;;;;;;;;;;;;;;;5029962;28;1860;-45
2023/02/04 13:51:05;;;;;;;;;;;;;;;;;;5029578;28;2008;-47
2023/02/04 13:53:33;;;;;;;;;;;;;;;;;;5030579;28;1705;-46
2023/02/04 13:56:01;;;;;;;;;;;;;;;;;;5029297;28;1534;-47
2023/02/04 13:58:30;;;;;;;;;;;;;;;;;;5023607;28;2078;-47
2023/02/04 14:00:57;;;;;;;;;;;;;;;;;;5029494;28;1842;-48
2023/02/04 14:03:27;;;;;;;;;;;;;;;;;;5030757;28;2120;-44
2023/02/04 14:05:55;;;;;;;;;;;;;;;;;;5030361;28;1810;-46
2023/02/04 14:08:22;;;;;;;;;;;;;;;;;;5028830;28;1991;-43
2023/02/04 14:10:49;;;;;;;;;;;;;;;;;;5027345;28;1814;-49
2023/02/04 14:13:17;;;;;;;;;;;;;;;;;;5030259;28;2018;-50
2023/02/04 14:15:45;;;;;;;;;;;;;;;;;;5029969;28;1866;-44
2023/02/04 14:18:12;;;;;;;;;;;;;;;;;;5029552;28;1983;-46
2023/02/04 14:20:39;;;;;;;;;;;;;;;;;;5033211;28;1792;-46
2023/02/04 14:23:07;;;;;;;;;;;;;;;;;;5032415;28;1862;-51
2023/02/04 14:25:34;;;;;;;;;;;;;;;;;;5033757;28;1859;-48
2023/02/04 14:28:01;;;;;;;;;;;;;;;;;;5032645;28;1789;-50
2023/02/04 14:30:29;;;;;;;;;;;;;;;;;;5032954;28;1786;-45
2023/02/04 14:32:58;;;;;;;;;;;;;;;;;;5033718;28;1835;-45
2023/02/04 14:35:26;;;;;;;;;;;;;;;;;;5034085;28;1557;-44
2023/02/04 14:37:53;;;;;;;;;;;;;;;;;;5033528;28;1909;-46
2023/02/04 14:40:20;;;;;;;;;;;;;;;;;;5030842;28;2106;-47
2023/02/04 14:42:47;;;;;;;;;;;;;;;;;;5033327;28;2148;-49
2023/02/04 14:45:15;;;;;;;;;;;;;;;;;;5032298;28;1919;-47
2023/02/04 14:47:42;;;;;;;;;;;;;;;;;;5032327;28;2371;-47
2023/02/04 14:50:11;;;;;;;;;;;;;;;;;;5033411;28;2214;-46
2023/02/04 14:52:39;;;;;;;;;;;;;;;;;;5032934;28;1712;-47
2023/02/04 14:55:08;;;;;;;;;;;;;;;;;;5033219;28;2008;-45
2023/02/04 14:57:35;;;;;;;;;;;;;;;;;;5029801;28;2017;-48
2023/02/04 15:00:03;;;;;;;;;;;;;;;;;;5018104;28;1582;-43
2023/02/04 15:02:30;;;;;;;;;;;;;;;;;;5032724;28;1835;-47
2023/02/04 15:04:57;;;;;;;;;;;;;;;;;;5021317;28;2294;-46
2023/02/04 15:07:24;;;;;;;;;;;;;;;;;;5032556;28;2259;-43
2023/02/04 15:09:51;;;;;;;;;;;;;;;;;;5032930;28;1789;-46
2023/02/04 15:12:19;;;;;;;;;;;;;;;;;;5030026;28;1961;-44
2023/02/04 15:14:46;;;;;;;;;;;;;;;;;;5032824;28;2267;-44
2023/02/04 15:17:13;;;;;;;;;;;;;;;;;;5032713;28;1985;-50
2023/02/04 15:19:40;;;;;;;;;;;;;;;;;;5032683;28;1910;-47
2023/02/04 15:22:07;;;;;;;;;;;;;;;;;;5016819;28;1973;-47
2023/02/04 15:24:34;;;;;;;;;;;;;;;;;;5032694;28;1793;-47
2023/02/04 15:27:01;;;;;;;;;;;;;;;;;;5032112;28;2054;-47
2023/02/04 15:29:29;;;;;;;;;;;;;;;;;;5031411;28;1795;-46
2023/02/04 15:31:56;;;;;;;;;;;;;;;;;;5032173;28;2049;-45
2023/02/04 15:34:23;;;;;;;;;;;;;;;;;;5031246;28;1733;-46
2023/02/04 15:36:54;;;;;;;;;;;;;;;;;;5031993;28;1675;-46
2023/02/04 15:39:22;;;;;;;;;;;;;;;;;;5031435;28;2003;-49
2023/02/04 15:41:49;;;;;;;;;;;;;;;;;;5031309;28;1951;-49
2023/02/04 15:44:16;;;;;;;;;;;;;;;;;;5028209;28;1631;-47
2023/02/04 15:46:43;;;;;;;;;;;;;;;;;;5025104;28;1469;-46
2023/02/04 15:49:13;;;;;;;;;;;;;;;;;;5026488;28;2245;-50
2023/02/04 15:51:50;;;;;;;;;;;;;;;;;;5031453;28;1718;-50
2023/02/04 15:54:17;;;;;;;;;;;;;;;;;;5031909;28;1921;-45
2023/02/04 15:56:44;;;;;;;;;;;;;;;;;;5032091;28;2268;-45
2023/02/04 15:59:12;;;;;;;;;;;;;;;;;;5032018;28;1971;-47
2023/02/04 16:01:39;;;;;;;;;;;;;;;;;;5031682;28;1856;-45
2023/02/04 16:04:06;;;;;;;;;;;;;;;;;;5031704;28;1846;-49
2023/02/04 16:06:33;;;;;;;;;;;;;;;;;;5030986;28;2122;-48
2023/02/04 16:09:00;;;;;;;;;;;;;;;;;;5019448;28;2183;-44
2023/02/04 16:11:28;;;;;;;;;;;;;;;;;;5030360;28;2037;-46
2023/02/04 16:13:55;;;;;;;;;;;;;;;;;;5025705;28;2222;-46
2023/02/04 16:16:22;;;;;;;;;;;;;;;;;;5025775;28;2029;-50
2023/02/04 16:18:49;;;;;;;;;;;;;;;;;;5023947;28;1979;-44
2023/02/04 16:21:17;;;;;;;;;;;;;;;;;;5031408;28;1733;-46
2023/02/04 16:23:44;;;;;;;;;;;;;;;;;;5031417;28;1369;-50
2023/02/04 16:26:14;;;;;;;;;;;;;;;;;;5031449;28;1976;-45
2023/02/04 16:28:41;;;;;;;;;;;;;;;;;;5019121;28;2282;-45
2023/02/04 16:31:08;;;;;;;;;;;;;;;;;;5023407;28;2426;-46
2023/02/04 16:33:36;;;;;;;;;;;;;;;;;;5027487;28;1838;-45
2023/02/04 16:36:09;;;;;;;;;;;;;;;;;;5031464;28;1932;-49
2023/02/04 16:38:37;;;;;;;;;;;;;;;;;;5024403;28;2383;-48
2023/02/04 16:41:05;;;;;;;;;;;;;;;;;;5012131;28;1558;-48
2023/02/04 16:43:32;;;;;;;;;;;;;;;;;;5028582;28;1846;-45
2023/02/04 16:46:00;;;;;;;;;;;;;;;;;;5028070;28;1789;-48
2023/02/04 16:48:28;;;;;;;;;;;;;;;;;;5025373;28;1718;-47
2023/02/04 16:50:55;;;;;;;;;;;;;;;;;;5031191;28;2206;-44
2023/02/04 16:53:22;;;;;;;;;;;;;;;;;;5011274;28;2248;-42
2023/02/04 16:55:50;;;;;;;;;;;;;;;;;;5010857;28;2231;-46
2023/02/04 16:58:18;;;;;;;;;;;;;;;;;;5011476;28;2345;-48
2023/02/04 17:00:45;;;;;;;;;;;;;;;;;;5011024;28;1761;-47
2023/02/04 17:03:13;;;;;;;;;;;;;;;;;;5021668;28;1662;-49
2023/02/04 17:05:41;;;;;;;;;;;;;;;;;;5031014;28;1671;-42
2023/02/04 17:08:08;;;;;;;;;;;;;;;;;;5029933;28;1405;-44
2023/02/04 17:13:23;;;;;;;;;;;;;;;;;;5030781;28;1805;-48
2023/02/04 17:15:51;;;;;;;;;;;;;;;;;;5030151;28;2017;-47